Time;durP1;ratioP1;P1;durP2;ratioP2;P2;SDS_P1;SDS_P2;PMS_P1;PMS_P2;Temp;Humidity;BMP_temperature;BMP_pressure;BME280_temperature;BME280_humidity;BME280_pressure;Samples;Min_cycle;Max_cycle;Signal;HPM_P1;HPM_P2
2023/06/11 00:01:08;;;;;;;11.68;5.82;;;;;;;;;;4962403;28;20504;-66
2023/06/11 00:03:40;;;;;;;11.13;6.28;;;;;;;;;;4970926;28;20039;-66
2023/06/11 00:06:06;;;;;;;11.52;7.00;;;;;;;;;;4950115;28;20063;-66
2023/06/11 00:08:32;;;;;;;13.10;6.45;;;;;;;;;;4970965;28;20042;-66
2023/06/11 00:10:59;;;;;;;13.18;6.40;;;;;;;;;;4965310;28;20085;-66
2023/06/11 00:13:24;;;;;;;10.90;6.18;;;;;;;;;;4967270;28;20122;-66
2023/06/11 00:15:51;;;;;;;14.63;7.28;;;;;;;;;;4966649;28;20086;-66
2023/06/11 00:18:17;;;;;;;16.35;6.65;;;;;;;;;;4968553;28;20042;-66
2023/06/11 00:20:43;;;;;;;15.30;6.50;;;;;;;;;;4964070;28;20094;-66
2023/06/11 00:23:09;;;;;;;10.98;5.90;;;;;;;;;;4967997;28;20134;-65
2023/06/11 00:25:35;;;;;;;16.13;6.70;;;;;;;;;;4969734;28;20039;-65
2023/06/11 00:28:02;;;;;;;13.00;7.72;;;;;;;;;;4968335;28;20381;-65
2023/06/11 00:30:28;;;;;;;17.42;6.93;;;;;;;;;;4970687;28;20511;-67
2023/06/11 00:32:54;;;;;;;9.95;6.00;;;;;;;;;;4967311;28;20034;-65
2023/06/11 00:35:20;;;;;;;11.20;6.85;;;;;;;;;;4969213;28;20041;-65
2023/06/11 00:37:47;;;;;;;13.63;6.40;;;;;;;;;;4967906;28;20417;-65
2023/06/11 00:40:13;;;;;;;10.05;6.22;;;;;;;;;;4971563;28;20166;-64
2023/06/11 00:42:40;;;;;;;11.30;7.32;;;;;;;;;;4966654;28;20072;-65
2023/06/11 00:45:08;;;;;;;12.98;7.28;;;;;;;;;;4966752;28;20058;-65
2023/06/11 00:47:36;;;;;;;10.98;6.65;;;;;;;;;;4951454;28;20489;-65
2023/06/11 00:50:04;;;;;;;13.93;7.90;;;;;;;;;;4950145;28;20097;-65
2023/06/11 00:52:30;;;;;;;13.52;6.68;;;;;;;;;;4960847;28;20035;-65
2023/06/11 00:54:56;;;;;;;19.10;7.82;;;;;;;;;;4964220;28;20234;-65
2023/06/11 00:57:24;;;;;;;11.70;6.97;;;;;;;;;;4952381;28;20073;-65
2023/06/11 00:59:53;;;;;;;12.70;7.47;;;;;;;;;;4949605;28;20102;-65
2023/06/11 01:02:23;;;;;;;10.50;7.35;;;;;;;;;;4948998;28;20042;-65
2023/06/11 01:04:57;;;;;;;14.25;7.22;;;;;;;;;;4961523;28;20119;-65
2023/06/11 01:07:26;;;;;;;12.85;7.07;;;;;;;;;;4948431;28;20311;-65
2023/06/11 01:09:52;;;;;;;13.63;8.10;;;;;;;;;;4966656;28;20039;-65
2023/06/11 01:12:19;;;;;;;10.70;6.65;;;;;;;;;;4967446;28;20077;-65
2023/06/11 01:14:45;;;;;;;10.80;7.55;;;;;;;;;;4951009;28;20074;-65
2023/06/11 01:17:19;;;;;;;14.68;7.90;;;;;;;;;;4964507;28;20051;-65
2023/06/11 01:19:52;;;;;;;12.57;6.85;;;;;;;;;;4971442;28;20089;-67
2023/06/11 01:22:37;;;;;;;17.17;8.10;;;;;;;;;;4963299;28;20039;-65
2023/06/11 01:25:16;;;;;;;11.27;7.57;;;;;;;;;;4968332;28;20405;-65
2023/06/11 01:27:44;;;;;;;12.52;7.70;;;;;;;;;;4962980;28;20035;-65
2023/06/11 01:30:17;;;;;;;12.40;7.65;;;;;;;;;;4970871;28;20042;-65
2023/06/11 01:32:43;;;;;;;12.70;8.15;;;;;;;;;;4966236;28;20445;-64
2023/06/11 01:35:10;;;;;;;15.20;8.52;;;;;;;;;;4969713;28;20101;-65
2023/06/11 01:37:36;;;;;;;15.80;8.63;;;;;;;;;;4964769;28;20496;-65
2023/06/11 01:40:02;;;;;;;11.40;7.93;;;;;;;;;;4959383;28;20039;-65
2023/06/11 01:42:28;;;;;;;12.05;7.70;;;;;;;;;;4970733;28;20042;-65
2023/06/11 01:44:55;;;;;;;12.70;8.45;;;;;;;;;;4963499;28;20043;-65
2023/06/11 01:47:21;;;;;;;12.02;8.65;;;;;;;;;;4971013;28;20258;-65
2023/06/11 01:49:48;;;;;;;13.82;10.07;;;;;;;;;;4966342;28;20492;-65
2023/06/11 01:52:16;;;;;;;16.10;8.73;;;;;;;;;;4961797;28;20051;-65
2023/06/11 01:54:42;;;;;;;11.82;8.32;;;;;;;;;;4964990;28;20047;-65
2023/06/11 01:57:08;;;;;;;12.73;8.73;;;;;;;;;;4973102;28;20368;-64
2023/06/11 01:59:34;;;;;;;12.02;8.65;;;;;;;;;;4970558;28;20043;-65
2023/06/11 02:02:00;;;;;;;14.27;9.27;;;;;;;;;;4968153;28;20082;-65
2023/06/11 02:04:26;;;;;;;14.05;8.75;;;;;;;;;;4974343;28;20039;-65
2023/06/11 02:06:52;;;;;;;11.65;8.18;;;;;;;;;;4959176;28;20236;-65
2023/06/11 02:09:18;;;;;;;13.02;8.27;;;;;;;;;;4974232;28;20082;-65
2023/06/11 02:11:44;;;;;;;12.48;8.63;;;;;;;;;;4971880;28;20058;-65
2023/06/11 02:14:11;;;;;;;13.48;9.57;;;;;;;;;;4969081;28;20043;-65
2023/06/11 02:16:37;;;;;;;14.35;9.52;;;;;;;;;;4956844;28;20050;-65
2023/06/11 02:19:03;;;;;;;14.10;8.90;;;;;;;;;;4959152;28;20575;-65
2023/06/11 02:21:30;;;;;;;16.25;10.02;;;;;;;;;;4971078;28;20093;-64
2023/06/11 02:23:56;;;;;;;12.40;8.55;;;;;;;;;;4971519;28;20038;-65
2023/06/11 02:26:23;;;;;;;12.70;8.75;;;;;;;;;;4974219;28;20039;-65
2023/06/11 02:28:49;;;;;;;14.60;9.73;;;;;;;;;;4967315;28;20049;-65
2023/06/11 02:31:15;;;;;;;11.93;9.52;;;;;;;;;;4964178;28;20064;-64
2023/06/11 02:33:41;;;;;;;13.70;10.23;;;;;;;;;;4962811;28;20034;-65
2023/06/11 02:36:07;;;;;;;11.50;9.07;;;;;;;;;;4971613;28;20133;-65
2023/06/11 02:38:33;;;;;;;14.13;10.15;;;;;;;;;;4972167;28;20043;-65
2023/06/11 02:40:59;;;;;;;12.25;9.35;;;;;;;;;;4965422;28;20043;-64
2023/06/11 02:43:25;;;;;;;12.10;9.82;;;;;;;;;;4966280;28;20034;-64
2023/06/11 02:45:51;;;;;;;17.15;10.57;;;;;;;;;;4972776;28;20412;-64
2023/06/11 02:48:17;;;;;;;13.52;9.20;;;;;;;;;;4973036;28;20046;-64
2023/06/11 02:50:43;;;;;;;11.55;8.98;;;;;;;;;;4967065;28;20050;-65
2023/06/11 02:53:09;;;;;;;12.25;8.32;;;;;;;;;;4971654;28;20062;-65
2023/06/11 02:55:35;;;;;;;12.57;8.73;;;;;;;;;;4970260;28;20066;-65
2023/06/11 02:58:01;;;;;;;10.77;8.07;;;;;;;;;;4965372;28;20100;-65
2023/06/11 03:00:27;;;;;;;13.18;8.93;;;;;;;;;;4973447;28;20064;-65
2023/06/11 03:02:53;;;;;;;12.10;9.27;;;;;;;;;;4968469;28;20046;-65
2023/06/11 03:05:19;;;;;;;10.60;8.18;;;;;;;;;;4952759;28;20084;-66
2023/06/11 03:07:45;;;;;;;13.13;8.32;;;;;;;;;;4963464;28;20041;-65
2023/06/11 03:10:11;;;;;;;13.23;9.90;;;;;;;;;;4968893;28;20517;-65
2023/06/11 03:12:37;;;;;;;11.40;8.40;;;;;;;;;;4969542;28;20074;-65
2023/06/11 03:15:03;;;;;;;11.85;8.82;;;;;;;;;;4963296;28;20117;-65
2023/06/11 03:17:29;;;;;;;14.93;9.52;;;;;;;;;;4972503;28;20043;-65
2023/06/11 03:19:55;;;;;;;15.52;9.80;;;;;;;;;;4970087;28;20053;-65
2023/06/11 03:22:21;;;;;;;12.02;9.10;;;;;;;;;;4953930;28;20105;-65
2023/06/11 03:24:47;;;;;;;12.40;8.35;;;;;;;;;;4971901;28;20050;-65
2023/06/11 03:27:13;;;;;;;12.52;9.20;;;;;;;;;;4962436;28;20143;-65
2023/06/11 03:29:39;;;;;;;10.82;8.80;;;;;;;;;;4971413;28;22456;-65
2023/06/11 03:32:06;;;;;;;13.27;10.18;;;;;;;;;;4969897;28;20050;-65
2023/06/11 03:34:32;;;;;;;10.63;8.88;;;;;;;;;;4969793;28;20109;-65
2023/06/11 03:36:58;;;;;;;11.68;8.73;;;;;;;;;;4965500;28;20047;-65
2023/06/11 03:39:24;;;;;;;13.35;9.20;;;;;;;;;;4970778;28;20116;-65
2023/06/11 03:41:50;;;;;;;12.95;9.27;;;;;;;;;;4964579;28;20038;-65
2023/06/11 03:44:16;;;;;;;14.00;8.82;;;;;;;;;;4966498;28;20058;-65
2023/06/11 03:46:42;;;;;;;13.35;9.88;;;;;;;;;;4967820;28;20084;-65
2023/06/11 03:49:08;;;;;;;11.90;10.05;;;;;;;;;;4970005;28;20039;-65
2023/06/11 03:51:35;;;;;;;14.60;9.93;;;;;;;;;;4967611;28;20416;-65
2023/06/11 03:54:01;;;;;;;11.15;8.88;;;;;;;;;;4969056;28;20042;-65
2023/06/11 03:56:27;;;;;;;11.30;9.48;;;;;;;;;;4954610;28;20030;-65
2023/06/11 03:58:53;;;;;;;11.57;9.27;;;;;;;;;;4964935;28;20043;-65
2023/06/11 04:01:20;;;;;;;10.85;8.57;;;;;;;;;;4970885;28;20038;-65
2023/06/11 04:03:46;;;;;;;12.80;9.55;;;;;;;;;;4963316;28;20449;-65
2023/06/11 04:06:12;;;;;;;11.65;9.07;;;;;;;;;;4947791;28;20109;-65
2023/06/11 04:08:38;;;;;;;11.07;9.05;;;;;;;;;;4967449;28;20042;-65
2023/06/11 04:11:04;;;;;;;12.07;9.00;;;;;;;;;;4972418;28;20081;-65
2023/06/11 04:13:30;;;;;;;12.70;9.20;;;;;;;;;;4965918;28;20078;-65
2023/06/11 04:15:56;;;;;;;13.82;9.15;;;;;;;;;;4954626;28;20057;-65
2023/06/11 04:18:22;;;;;;;12.35;9.68;;;;;;;;;;4969337;28;20477;-65
2023/06/11 04:20:48;;;;;;;13.18;10.07;;;;;;;;;;4965755;28;20401;-65
2023/06/11 04:23:14;;;;;;;11.07;9.65;;;;;;;;;;4968281;28;20045;-65
2023/06/11 04:25:41;;;;;;;11.23;8.70;;;;;;;;;;4964452;28;20039;-65
2023/06/11 04:28:08;;;;;;;13.40;9.68;;;;;;;;;;4947250;28;20512;-65
2023/06/11 04:30:34;;;;;;;12.23;10.35;;;;;;;;;;4949646;28;20042;-65
2023/06/11 04:33:04;;;;;;;14.50;10.15;;;;;;;;;;4966060;28;20042;-65
2023/06/11 04:35:33;;;;;;;11.50;9.80;;;;;;;;;;4946992;28;20050;-65
2023/06/11 04:37:59;;;;;;;13.05;10.55;;;;;;;;;;4950350;28;20054;-65
2023/06/11 04:40:25;;;;;;;11.70;9.48;;;;;;;;;;4952433;28;20081;-65
2023/06/11 04:42:51;;;;;;;13.20;10.40;;;;;;;;;;4950115;28;20043;-65
2023/06/11 04:45:20;;;;;;;11.35;9.63;;;;;;;;;;4969621;28;20435;-65
2023/06/11 04:47:46;;;;;;;12.55;9.88;;;;;;;;;;4951842;28;20235;-65
2023/06/11 04:50:12;;;;;;;13.35;9.90;;;;;;;;;;4971109;28;20082;-65
2023/06/11 04:52:42;;;;;;;11.48;9.23;;;;;;;;;;4954065;28;20043;-65
2023/06/11 04:55:12;;;;;;;12.55;10.23;;;;;;;;;;4968687;28;20050;-65
2023/06/11 04:57:38;;;;;;;14.60;11.00;;;;;;;;;;4954537;28;20049;-65
2023/06/11 05:00:07;;;;;;;13.80;10.10;;;;;;;;;;4971540;28;20039;-65
2023/06/11 05:02:37;;;;;;;12.50;10.95;;;;;;;;;;4968179;28;20030;-65
2023/06/11 05:05:04;;;;;;;14.05;11.30;;;;;;;;;;4950598;28;20050;-65
2023/06/11 05:07:31;;;;;;;11.95;9.98;;;;;;;;;;4971276;28;20042;-65
2023/06/11 05:09:57;;;;;;;14.05;11.60;;;;;;;;;;4953655;28;20129;-65
2023/06/11 05:12:23;;;;;;;12.80;10.57;;;;;;;;;;4970369;28;20054;-66
2023/06/11 05:14:49;;;;;;;12.88;11.00;;;;;;;;;;4968118;28;20127;-65
2023/06/11 05:17:15;;;;;;;12.27;9.85;;;;;;;;;;4970989;28;20122;-65
2023/06/11 05:19:42;;;;;;;12.88;9.98;;;;;;;;;;4970501;28;20296;-65
2023/06/11 05:22:08;;;;;;;12.25;9.57;;;;;;;;;;4953166;28;20049;-65
2023/06/11 05:24:34;;;;;;;16.50;11.25;;;;;;;;;;4970785;28;20082;-65
2023/06/11 05:27:00;;;;;;;13.20;10.95;;;;;;;;;;4970859;28;20043;-65
2023/06/11 05:29:27;;;;;;;14.60;10.70;;;;;;;;;;4953986;28;20318;-65
2023/06/11 05:31:53;;;;;;;11.45;9.38;;;;;;;;;;4943593;28;20035;-65
2023/06/11 05:34:19;;;;;;;13.98;10.85;;;;;;;;;;4969885;28;20034;-65
2023/06/11 05:36:48;;;;;;;13.02;10.40;;;;;;;;;;4975771;28;20034;-65
2023/06/11 05:39:14;;;;;;;12.95;10.60;;;;;;;;;;4972127;28;20043;-66
2023/06/11 05:41:40;;;;;;;11.65;10.30;;;;;;;;;;4977167;28;20492;-65
2023/06/11 05:44:06;;;;;;;13.55;10.13;;;;;;;;;;4975687;28;20035;-65
2023/06/11 05:46:32;;;;;;;12.38;10.30;;;;;;;;;;4976995;28;20500;-65
2023/06/11 05:49:01;;;;;;;13.65;11.43;;;;;;;;;;4977148;28;20077;-65
2023/06/11 05:51:27;;;;;;;13.52;10.63;;;;;;;;;;4959772;28;20279;-65
2023/06/11 05:53:53;;;;;;;12.65;10.40;;;;;;;;;;4967574;28;20046;-65
2023/06/11 05:56:19;;;;;;;12.55;10.25;;;;;;;;;;4977401;28;20038;-65
2023/06/11 05:58:45;;;;;;;13.27;10.93;;;;;;;;;;4974306;28;20446;-65
2023/06/11 06:01:12;;;;;;;13.05;10.70;;;;;;;;;;4976908;28;20058;-65
2023/06/11 06:03:38;;;;;;;12.35;10.75;;;;;;;;;;4957774;28;20043;-66
2023/06/11 06:06:04;;;;;;;12.85;10.25;;;;;;;;;;4977105;28;20070;-65
2023/06/11 06:08:31;;;;;;;15.05;10.40;;;;;;;;;;4973432;28;20134;-66
2023/06/11 06:10:57;;;;;;;13.65;10.80;;;;;;;;;;4966551;28;20460;-65
2023/06/11 06:13:27;;;;;;;13.25;9.80;;;;;;;;;;4971591;28;20077;-65
2023/06/11 06:15:53;;;;;;;11.75;10.20;;;;;;;;;;4971586;28;20034;-65
2023/06/11 06:18:19;;;;;;;12.55;10.52;;;;;;;;;;4976630;28;20043;-65
2023/06/11 06:20:46;;;;;;;12.57;11.18;;;;;;;;;;4976744;28;20452;-65
2023/06/11 06:23:12;;;;;;;12.88;11.48;;;;;;;;;;4959209;28;20168;-65
2023/06/11 06:25:38;;;;;;;13.90;11.20;;;;;;;;;;4977228;28;20410;-65
2023/06/11 06:28:05;;;;;;;11.77;10.27;;;;;;;;;;4977154;28;20412;-65
2023/06/11 06:30:32;;;;;;;12.50;10.82;;;;;;;;;;4955413;28;20121;-65
2023/06/11 06:32:58;;;;;;;12.23;10.73;;;;;;;;;;4958800;28;20104;-66
2023/06/11 06:35:25;;;;;;;12.82;10.27;;;;;;;;;;4976108;28;20421;-65
2023/06/11 06:37:51;;;;;;;13.57;10.75;;;;;;;;;;4976647;28;20039;-65
2023/06/11 06:40:17;;;;;;;13.63;10.00;;;;;;;;;;4958950;28;20051;-66
2023/06/11 06:42:43;;;;;;;11.63;10.43;;;;;;;;;;4972620;28;20485;-66
2023/06/11 06:45:09;;;;;;;12.38;10.63;;;;;;;;;;4973485;28;20397;-66
2023/06/11 06:47:35;;;;;;;11.15;9.95;;;;;;;;;;4955813;28;20523;-66
2023/06/11 06:50:01;;;;;;;12.45;10.43;;;;;;;;;;4973080;28;20461;-66
2023/06/11 06:52:28;;;;;;;14.45;11.25;;;;;;;;;;4955509;28;20059;-66
2023/06/11 06:54:54;;;;;;;12.02;10.02;;;;;;;;;;4973277;28;20042;-66
2023/06/11 06:57:20;;;;;;;13.35;9.98;;;;;;;;;;4968741;28;20043;-66
2023/06/11 06:59:46;;;;;;;15.95;11.10;;;;;;;;;;4966267;28;20049;-66
2023/06/11 07:02:12;;;;;;;14.75;11.70;;;;;;;;;;4969567;28;20093;-67
2023/06/11 07:04:38;;;;;;;13.07;10.15;;;;;;;;;;4946092;28;20282;-67
2023/06/11 07:07:04;;;;;;;12.73;10.23;;;;;;;;;;4971473;28;20516;-67
2023/06/11 07:09:31;;;;;;;11.68;10.10;;;;;;;;;;4972366;28;20555;-68
2023/06/11 07:11:57;;;;;;;12.95;9.57;;;;;;;;;;4972625;28;20126;-70
2023/06/11 07:14:23;;;;;;;11.60;10.30;;;;;;;;;;4972539;28;20081;-73
2023/06/11 07:16:49;;;;;;;11.75;10.50;;;;;;;;;;4968230;28;20038;-70
2023/06/11 07:19:15;;;;;;;11.20;10.02;;;;;;;;;;4938379;28;20650;-72
2023/06/11 07:21:41;;;;;;;10.45;9.32;;;;;;;;;;4944739;28;20419;-72
2023/06/11 07:24:08;;;;;;;12.65;10.40;;;;;;;;;;4953458;28;20047;-73
2023/06/11 07:26:34;;;;;;;11.60;10.35;;;;;;;;;;4971411;28;20065;-73
2023/06/11 07:29:00;;;;;;;14.68;10.30;;;;;;;;;;4949344;28;20038;-73
2023/06/11 07:31:26;;;;;;;11.45;9.95;;;;;;;;;;4965477;28;20050;-73
2023/06/11 07:33:53;;;;;;;11.60;9.73;;;;;;;;;;4954791;28;20034;-73
2023/06/11 07:36:21;;;;;;;12.35;9.55;;;;;;;;;;4933757;28;20098;-73
2023/06/11 07:38:47;;;;;;;11.60;10.35;;;;;;;;;;4938426;28;20132;-73
2023/06/11 07:41:13;;;;;;;11.32;9.38;;;;;;;;;;4970449;28;20120;-73
2023/06/11 07:43:39;;;;;;;11.10;9.35;;;;;;;;;;4965794;28;20043;-73
2023/06/11 07:46:05;;;;;;;12.27;9.07;;;;;;;;;;4948335;28;20074;-73
2023/06/11 07:48:31;;;;;;;11.30;9.63;;;;;;;;;;4969336;28;20042;-72
2023/06/11 07:50:58;;;;;;;11.48;9.13;;;;;;;;;;4937289;28;20054;-72
2023/06/11 07:53:24;;;;;;;11.43;9.70;;;;;;;;;;4953393;28;20054;-73
2023/06/11 07:55:56;;;;;;;10.30;8.48;;;;;;;;;;4949760;28;20521;-73
2023/06/11 07:58:22;;;;;;;9.95;8.80;;;;;;;;;;4926764;28;20123;-73
2023/06/11 08:00:49;;;;;;;12.82;8.98;;;;;;;;;;4940668;28;20633;-72
2023/06/11 08:03:15;;;;;;;10.32;9.23;;;;;;;;;;4938384;29;20039;-73
2023/06/11 08:05:41;;;;;;;11.88;9.52;;;;;;;;;;4940667;28;20058;-73
2023/06/11 08:08:07;;;;;;;10.55;9.02;;;;;;;;;;4936934;28;20090;-73
2023/06/11 08:10:33;;;;;;;11.68;9.30;;;;;;;;;;4957786;28;20568;-73
2023/06/11 08:12:59;;;;;;;10.10;8.73;;;;;;;;;;4940455;28;20110;-73
2023/06/11 08:15:25;;;;;;;12.30;9.80;;;;;;;;;;4940464;28;20042;-73
2023/06/11 08:17:51;;;;;;;11.63;9.60;;;;;;;;;;4933855;28;20035;-73
2023/06/11 08:20:18;;;;;;;10.52;9.35;;;;;;;;;;4947473;28;20039;-73
2023/06/11 08:22:44;;;;;;;12.05;9.52;;;;;;;;;;4930729;28;20043;-73
2023/06/11 08:25:11;;;;;;;10.63;9.52;;;;;;;;;;4969654;28;20086;-73
2023/06/11 08:27:37;;;;;;;11.95;9.88;;;;;;;;;;4955440;28;20053;-72
2023/06/11 08:30:03;;;;;;;12.77;8.80;;;;;;;;;;4955784;28;20069;-72
2023/06/11 08:32:29;;;;;;;10.38;8.82;;;;;;;;;;4950467;28;20157;-72
2023/06/11 08:34:56;;;;;;;10.85;9.25;;;;;;;;;;4942086;28;20065;-72
2023/06/11 08:37:22;;;;;;;12.35;9.27;;;;;;;;;;4946441;28;20070;-72
2023/06/11 08:39:48;;;;;;;10.55;8.93;;;;;;;;;;4953767;28;20504;-72
2023/06/11 08:42:14;;;;;;;11.05;9.43;;;;;;;;;;4952804;28;20039;-72
2023/06/11 08:44:40;;;;;;;10.68;9.18;;;;;;;;;;4952920;28;20031;-72
2023/06/11 08:47:09;;;;;;;11.77;9.93;;;;;;;;;;4954393;28;20186;-72
2023/06/11 08:49:39;;;;;;;9.73;8.50;;;;;;;;;;4954238;28;20057;-72
2023/06/11 08:52:05;;;;;;;11.00;9.55;;;;;;;;;;4937631;28;20047;-72
2023/06/11 08:54:32;;;;;;;10.32;9.02;;;;;;;;;;4938135;28;20584;-72
2023/06/11 08:56:58;;;;;;;13.88;8.65;;;;;;;;;;4954158;28;20042;-72
2023/06/11 08:59:24;;;;;;;9.15;8.18;;;;;;;;;;4954074;28;20167;-72
2023/06/11 09:01:52;;;;;;;12.55;8.80;;;;;;;;;;4954434;28;20291;-72
2023/06/11 09:04:20;;;;;;;10.68;8.90;;;;;;;;;;4953599;28;20047;-72
2023/06/11 09:06:52;;;;;;;10.30;8.00;;;;;;;;;;4954167;28;20043;-72
2023/06/11 09:09:18;;;;;;;11.43;9.27;;;;;;;;;;4954266;28;20046;-72
2023/06/11 09:11:47;;;;;;;11.05;9.23;;;;;;;;;;4953395;28;20050;-73
2023/06/11 09:14:13;;;;;;;9.88;8.88;;;;;;;;;;4953876;28;20586;-73
2023/06/11 09:16:39;;;;;;;12.25;9.02;;;;;;;;;;4953721;28;20046;-73
2023/06/11 09:19:05;;;;;;;11.38;9.55;;;;;;;;;;4950750;28;20047;-73
2023/06/11 09:21:33;;;;;;;11.18;8.93;;;;;;;;;;4953658;28;20094;-72
2023/06/11 09:24:11;;;;;;;10.73;8.93;;;;;;;;;;4953676;28;20045;-73
2023/06/11 09:26:37;;;;;;;9.63;8.30;;;;;;;;;;4953792;28;20042;-72
2023/06/11 09:29:04;;;;;;;13.25;9.48;;;;;;;;;;4954295;28;20042;-72
2023/06/11 09:31:31;;;;;;;11.13;8.40;;;;;;;;;;4953675;28;20487;-72
2023/06/11 09:34:02;;;;;;;10.13;8.80;;;;;;;;;;4953866;28;20504;-72
2023/06/11 09:36:31;;;;;;;11.02;8.23;;;;;;;;;;4953597;28;20118;-72
2023/06/11 09:38:57;;;;;;;11.65;8.23;;;;;;;;;;4953864;28;20050;-72
2023/06/11 09:41:23;;;;;;;10.52;9.05;;;;;;;;;;4953769;28;20050;-72
2023/06/11 09:43:53;;;;;;;10.45;8.07;;;;;;;;;;4937461;28;20049;-72
2023/06/11 09:46:20;;;;;;;10.63;9.50;;;;;;;;;;4971242;28;20114;-72
2023/06/11 09:48:48;;;;;;;12.07;9.13;;;;;;;;;;4953679;28;20492;-72
2023/06/11 09:51:21;;;;;;;11.25;9.25;;;;;;;;;;4971189;28;20122;-72
2023/06/11 09:53:51;;;;;;;13.63;8.82;;;;;;;;;;4953398;28;20051;-72
2023/06/11 09:56:21;;;;;;;12.32;8.50;;;;;;;;;;4954031;28;20094;-72
2023/06/11 09:58:50;;;;;;;9.98;8.88;;;;;;;;;;4953844;28;20513;-72
2023/06/11 10:01:17;;;;;;;10.68;8.98;;;;;;;;;;4954064;28;20043;-71
2023/06/11 10:03:43;;;;;;;12.18;9.50;;;25.10;99.90;;;;;;4953052;28;20035;-71
2023/06/11 10:06:15;;;;;;;9.82;8.77;;;25.30;99.90;;;;;;4953565;28;20055;-71
2023/06/11 10:08:48;;;;;;;11.57;9.30;;;;;;;;;;4953719;28;20047;-71
2023/06/11 10:11:16;;;;;;;10.05;8.35;;;;;;;;;;4953558;28;20106;-71
2023/06/11 10:13:43;;;;;;;10.40;8.65;;;;;;;;;;4952996;28;20042;-72
2023/06/11 10:16:10;;;;;;;10.02;8.70;;;;;;;;;;4947265;28;20746;-72
2023/06/11 10:18:37;;;;;;;9.15;7.72;;;;;;;;;;4956444;28;20345;-71
2023/06/11 10:21:05;;;;;;;10.00;8.60;;;;;;;;;;4957092;28;20042;-72
2023/06/11 10:23:38;;;;;;;8.85;7.90;;;;;;;;;;4973759;28;20049;-72
2023/06/11 10:26:06;;;;;;;10.07;8.50;;;;;;;;;;4941400;28;20070;-72
2023/06/11 10:28:44;;;;;;;11.10;8.20;;;;;;;;;;4940820;28;20423;-72
2023/06/11 10:31:10;;;;;;;9.05;7.85;;;;;;;;;;4974473;28;20590;-72
2023/06/11 10:33:37;;;;;;;12.40;8.30;;;;;;;;;;4956433;28;20424;-72
2023/06/11 10:36:04;;;;;;;9.23;7.95;;;;;;;;;;4957061;28;20101;-71
2023/06/11 10:38:30;;;;;;;9.00;7.57;;;26.80;99.90;;;;;;4973656;28;20523;-71
2023/06/11 10:41:06;;;;;;;10.10;8.07;;;;;;;;;;4974055;28;20034;-72
2023/06/11 10:43:33;;;;;;;10.50;7.65;;;;;;;;;;4955658;28;20070;-72
2023/06/11 10:46:03;;;;;;;9.25;8.10;;;;;;;;;;4956646;28;20117;-72
2023/06/11 10:48:30;;;;;;;8.93;7.35;;;;;;;;;;4956310;28;20133;-72
2023/06/11 10:51:03;;;;;;;11.85;7.70;;;27.60;99.90;;;;;;4954956;28;20497;-72
2023/06/11 10:53:40;;;;;;;8.55;7.45;;;;;;;;;;4955904;28;20038;-72
2023/06/11 10:56:10;;;;;;;9.40;7.40;;;;;;;;;;4934944;28;20409;-71
2023/06/11 10:58:37;;;;;;;9.40;7.80;;;27.70;99.90;;;;;;4956436;28;20046;-72
2023/06/11 11:01:06;;;;;;;10.50;7.40;;;27.50;99.90;;;;;;4956158;28;20412;-72
2023/06/11 11:03:33;;;;;;;10.85;7.40;;;28.00;99.90;;;;;;4956071;28;20039;-71
2023/06/11 11:05:59;;;;;;;10.02;7.10;;;28.00;99.90;;;;;;4956314;28;20065;-72
2023/06/11 11:08:25;;;;;;;9.10;7.50;;;27.80;99.90;;;;;;4937091;28;20077;-72
2023/06/11 11:11:02;;;;;;;8.48;6.75;;;;;;;;;;4956144;28;20050;-72
2023/06/11 11:13:31;;;;;;;7.88;6.78;;;28.30;99.90;;;;;;4955896;28;20488;-71
2023/06/11 11:16:00;;;;;;;8.88;7.00;;;28.30;99.90;;;;;;4973375;28;20114;-71
2023/06/11 11:18:27;;;;;;;8.40;6.28;;;28.40;99.90;;;;;;4956176;28;20042;-72
2023/06/11 11:20:54;;;;;;;8.48;6.03;;;28.70;99.90;;;;;;4955879;28;20042;-71
2023/06/11 11:23:20;;;;;;;8.43;6.28;;;28.70;99.90;;;;;;4955555;28;20420;-71
2023/06/11 11:25:46;;;;;;;7.65;5.55;;;28.80;99.90;;;;;;4955773;28;21052;-71
2023/06/11 11:28:12;;;;;;;10.10;6.05;;;28.70;99.90;;;;;;4955506;28;20045;-72
2023/06/11 11:30:39;;;;;;;7.15;5.68;;;29.00;99.90;;;;;;4939937;28;20046;-72
2023/06/11 11:33:05;;;;;;;8.45;6.05;;;28.80;99.90;;;;;;4940046;28;20565;-72
2023/06/11 11:35:31;;;;;;;7.68;6.32;;;29.10;99.90;;;;;;4950959;28;20046;-73
2023/06/11 11:37:57;;;;;;;11.95;6.40;;;29.10;99.90;;;;;;4956094;28;20043;-73
2023/06/11 11:40:23;;;;;;;8.10;5.72;;;29.30;99.90;;;;;;4939810;28;20031;-73
2023/06/11 11:42:56;;;;;;;8.23;5.80;;;29.40;99.90;;;;;;4955089;28;20463;-72
2023/06/11 11:45:31;;;;;;;8.70;6.05;;;29.60;99.90;;;;;;4955461;28;20126;-72
2023/06/11 11:47:57;;;;;;;8.82;5.95;;;29.80;99.90;;;;;;4955604;28;20130;-72
2023/06/11 11:50:27;;;;;;;8.68;6.30;;;29.80;99.90;;;;;;4955333;28;20140;-73
2023/06/11 11:53:06;;;;;;;8.07;5.97;;;30.00;99.90;;;;;;4938850;28;20105;-72
2023/06/11 11:55:35;;;;;;;7.85;5.70;;;30.20;99.90;;;;;;4955086;28;20058;-72
2023/06/11 11:58:09;;;;;;;7.35;5.68;;;30.40;99.90;;;;;;4939528;28;20043;-72
2023/06/11 12:00:37;;;;;;;7.25;5.85;;;30.50;90.50;;;;;;4972619;28;20039;-72
2023/06/11 12:03:10;;;;;;;7.72;5.40;;;30.60;99.90;;;;;;4954683;28;20039;-72
2023/06/11 12:05:39;;;;;;;7.80;5.20;;;30.70;99.90;;;;;;4955390;28;20432;-73
2023/06/11 12:08:08;;;;;;;7.20;5.20;;;31.10;99.90;;;;;;4951354;28;20039;-72
2023/06/11 12:10:34;;;;;;;8.50;7.10;;;30.90;98.70;;;;;;4955405;28;20038;-72
2023/06/11 12:13:00;;;;;;;7.57;5.55;;;30.90;90.30;;;;;;4971571;28;20462;-72
2023/06/11 12:15:27;;;;;;;8.95;5.60;;;31.30;93.00;;;;;;4955063;28;20527;-72
2023/06/11 12:17:53;;;;;;;8.80;5.55;;;31.50;81.60;;;;;;4954757;28;20058;-73
2023/06/11 12:20:21;;;;;;;6.72;5.30;;;31.90;86.50;;;;;;4954623;28;20050;-72
2023/06/11 12:22:47;;;;;;;7.25;5.53;;;31.90;81.60;;;;;;4954243;28;20042;-72
2023/06/11 12:25:13;;;;;;;7.20;5.47;;;32.30;78.30;;;;;;4954705;28;20247;-72
2023/06/11 12:27:39;;;;;;;7.15;5.00;;;32.20;67.00;;;;;;4938581;28;20160;-73
2023/06/11 12:30:05;;;;;;;7.93;5.47;;;32.30;66.00;;;;;;4954631;28;20045;-72
2023/06/11 12:32:31;;;;;;;6.90;5.00;;;32.90;52.40;;;;;;4954035;28;20043;-72
2023/06/11 12:34:57;;;;;;;7.07;5.47;;;33.50;54.80;;;;;;4971817;28;20035;-72
2023/06/11 12:37:24;;;;;;;7.90;5.50;;;33.70;48.40;;;;;;4972114;28;20377;-73
2023/06/11 12:39:50;;;;;;;7.97;4.75;;;34.90;48.40;;;;;;4952251;28;20509;-72
2023/06/11 12:42:20;;;;;;;7.38;5.00;;;35.80;39.90;;;;;;4971063;28;20043;-72
2023/06/11 12:44:50;;;;;;;8.80;4.72;;;36.40;30.20;;;;;;4938592;28;20412;-72
2023/06/11 12:47:16;;;;;;;8.10;5.35;;;38.30;19.40;;;;;;4971774;28;20046;-72
2023/06/11 12:49:42;;;;;;;8.13;5.03;;;39.90;2.70;;;;;;4954129;28;20043;-72
2023/06/11 12:52:11;;;;;;;7.35;4.70;;;41.40;1.00;;;;;;4971301;28;20039;-72
2023/06/11 12:54:37;;;;;;;6.13;4.93;;;43.40;1.00;;;;;;4954412;28;20053;-73
2023/06/11 12:57:04;;;;;;;7.55;4.72;;;44.40;1.00;;;;;;4954303;28;20041;-72
2023/06/11 12:59:29;;;;;;;7.82;5.20;;;45.50;1.00;;;;;;4954852;28;20417;-72
2023/06/11 13:01:55;;;;;;;8.90;5.30;;;46.40;1.00;;;;;;4971892;28;20110;-73
2023/06/11 13:04:22;;;;;;;6.65;4.90;;;47.20;1.00;;;;;;4954119;28;20118;-72
2023/06/11 13:06:48;;;;;;;7.50;4.93;;;47.90;1.00;;;;;;4954525;28;20167;-73
2023/06/11 13:09:14;;;;;;;8.52;4.65;;;48.40;1.00;;;;;;4954792;28;20076;-72
2023/06/11 13:11:41;;;;;;;7.70;4.28;;;48.70;1.00;;;;;;4954223;28;20456;-72
2023/06/11 13:14:07;;;;;;;6.72;4.15;;;49.20;1.00;;;;;;4954384;28;20051;-73
2023/06/11 13:16:33;;;;;;;6.20;4.60;;;49.60;1.00;;;;;;4954202;28;20056;-72
2023/06/11 13:19:00;;;;;;;6.93;4.30;;;49.80;1.00;;;;;;4954528;28;20062;-73
2023/06/11 13:21:26;;;;;;;6.20;4.20;;;50.60;1.00;;;;;;4954285;28;20042;-72
2023/06/11 13:23:53;;;;;;;5.70;3.97;;;50.70;1.00;;;;;;4966706;28;20090;-73
2023/06/11 13:26:18;;;;;;;6.68;4.15;;;50.70;99.90;;;;;;4938736;28;20042;-73
2023/06/11 13:28:44;;;;;;;6.68;4.28;;;51.30;99.90;;;;;;4953960;28;20039;-73
2023/06/11 13:31:10;;;;;;;6.28;4.38;;;51.50;99.90;;;;;;4954075;28;20046;-73
2023/06/11 13:33:36;;;;;;;6.95;4.22;;;51.60;99.90;;;;;;4937506;28;20404;-73
2023/06/11 13:36:02;;;;;;;6.32;4.72;;;51.80;99.90;;;;;;4954425;28;20035;-73
2023/06/11 13:38:28;;;;;;;6.70;4.32;;;52.10;99.90;;;;;;4938197;28;20047;-73
2023/06/11 13:40:54;;;;;;;7.38;4.10;;;52.80;99.90;;;;;;4953821;28;20142;-73
2023/06/11 13:43:19;;;;;;;5.88;4.50;;;52.80;99.90;;;;;;4953855;28;20042;-73
2023/06/11 13:45:45;;;;;;;6.53;4.20;;;53.00;99.90;;;;;;4971463;28;20026;-73
2023/06/11 13:48:19;;;;;;;5.60;4.10;;;53.30;99.90;;;;;;4954039;28;20039;-72
2023/06/11 13:50:47;;;;;;;6.47;4.43;;;53.20;99.90;;;;;;4953663;28;20042;-73
2023/06/11 13:53:14;;;;;;;6.38;4.65;;;53.20;99.90;;;;;;4957830;28;20043;-73
2023/06/11 13:55:40;;;;;;;7.05;4.82;;;53.50;99.90;;;;;;4957706;28;20046;-73
2023/06/11 13:58:06;;;;;;;5.88;4.68;;;53.70;99.90;;;;;;4975602;28;20555;-72
2023/06/11 14:00:32;;;;;;;8.02;4.80;;;54.10;99.90;;;;;;4968536;28;20098;-73